Terminal Aerodrome Forecast
Issued by NWS Twin Cities, MN

Home | Current Version | Previous Version | Text Only | Print | Product List | Glossary Off
Versions: 1 2 3 4 5 6 7 8 9 10 11

332
FTUS43 KMPX 241721
TAFEAU
TAF
KEAU 241721Z 2418/2518 16014G22KT P6SM BKN150
     FM250200 16010KT P6SM BKN110
     FM250600 16009KT P6SM OVC070 WS020/19040KT
     FM251200 16009KT P6SM OVC070=

USA.gov is the U.S. government's official web portal to all federal, state and local government web resources and services.